Decoded Metar for ETHF (FRITZLAR in GERMANY) (IATA:N/A) | Meteo·Mobile Aviation Weather
aviador You're here:

ETHF Decoded Metar

FRITZLAR in GERMANY
Report Time2019-03-19 18:20:00
UTC Time2019-03-19 18:44:46
Flight Rules vfr VFR
Wind290° at 02 kt
W.Decomp.*RWY 30: 2.0 kt HW 0.4 kt LCW
W.Rank290° ranks 7
Current wind is below 290° avg. (4.4)
Visibility9999 m
Phenomena:N/A
Clouds:Scattered 055 Hf
Expected CloudBase > 2,400 ft AGL from Temp-Dew spread
CeilingNone
Temp05°C (ISA -9)
Dew Point-1°C (66% RH)
AAT2.2°C
QNH1030 hPa
Density Alt-965 ft
Elevation594 ft
Report Wrong Elevation
Raw Report
METAR ETHF 191820Z 29002KT 9999 SCT055 05/M01 Q1030 BLU+BLU+=

Extra information for ETHF:More info

Metar Taf Metar & Taf Last 4 Metars F.Rules Stats Wind Profile Meteogram Temp Stats Airport Information Weather charts Add Link Nearby VenuesMetar ALERT Operation Metar Decoded Social comments